sensor_id;sensor_type;location;lat;lon;timestamp;pressure;altitude;pressure_sealevel;temperature;humidity
35888;BME280;21990;42.540;23.496;2023-07-31T00:00:05;93246.97;;;20.36;97.86
35888;BME280;21990;42.540;23.496;2023-07-31T00:02:31;93252.38;;;20.32;98.38
35888;BME280;21990;42.540;23.496;2023-07-31T00:04:56;93245.59;;;20.37;96.60
35888;BME280;21990;42.540;23.496;2023-07-31T00:07:22;93245.59;;;20.37;96.37
35888;BME280;21990;42.540;23.496;2023-07-31T00:09:47;93252.22;;;20.40;96.69
35888;BME280;21990;42.540;23.496;2023-07-31T00:12:13;93251.63;;;20.41;97.51
35888;BME280;21990;42.540;23.496;2023-07-31T00:14:38;93240.19;;;20.31;96.64
35888;BME280;21990;42.540;23.496;2023-07-31T00:17:04;93240.63;;;20.28;96.89
35888;BME280;21990;42.540;23.496;2023-07-31T00:19:30;93240.47;;;20.35;97.12
35888;BME280;21990;42.540;23.496;2023-07-31T00:21:56;93231.00;;;20.14;97.70
35888;BME280;21990;42.540;23.496;2023-07-31T00:24:21;93235.38;;;20.15;98.11
35888;BME280;21990;42.540;23.496;2023-07-31T00:26:47;93232.22;;;20.11;98.42
35888;BME280;21990;42.540;23.496;2023-07-31T00:29:12;93235.25;;;20.03;98.92
35888;BME280;21990;42.540;23.496;2023-07-31T00:31:38;93225.88;;;20.12;99.46
35888;BME280;21990;42.540;23.496;2023-07-31T00:34:03;93222.56;;;20.16;99.96
35888;BME280;21990;42.540;23.496;2023-07-31T00:36:29;93221.84;;;20.15;98.92
35888;BME280;21990;42.540;23.496;2023-07-31T00:38:54;93222.56;;;20.16;99.58
35888;BME280;21990;42.540;23.496;2023-07-31T00:41:20;93227.69;;;20.17;99.97
35888;BME280;21990;42.540;23.496;2023-07-31T00:43:45;93218.69;;;20.11;99.83
35888;BME280;21990;42.540;23.496;2023-07-31T00:46:11;93213.56;;;20.10;99.17
35888;BME280;21990;42.540;23.496;2023-07-31T00:48:37;93207.06;;;20.09;98.50
35888;BME280;21990;42.540;23.496;2023-07-31T00:51:04;93202.53;;;20.16;97.90
35888;BME280;21990;42.540;23.496;2023-07-31T00:53:30;93186.41;;;20.20;98.30
35888;BME280;21990;42.540;23.496;2023-07-31T00:55:56;93187.47;;;20.25;98.16
35888;BME280;21990;42.540;23.496;2023-07-31T00:58:21;93185.50;;;20.27;98.17
35888;BME280;21990;42.540;23.496;2023-07-31T01:00:47;93178.88;;;20.25;98.41
35888;BME280;21990;42.540;23.496;2023-07-31T01:03:12;93168.19;;;20.25;98.22
35888;BME280;21990;42.540;23.496;2023-07-31T01:11:17;93194.06;;;20.27;97.99
35888;BME280;21990;42.540;23.496;2023-07-31T01:13:45;93186.88;;;20.26;97.77
35888;BME280;21990;42.540;23.496;2023-07-31T01:16:11;93179.81;;;20.18;98.16
35888;BME280;21990;42.540;23.496;2023-07-31T01:18:37;93182.06;;;20.19;98.13
35888;BME280;21990;42.540;23.496;2023-07-31T01:26:30;93181.63;;;20.23;97.61
35888;BME280;21990;42.540;23.496;2023-07-31T01:29:03;93171.06;;;20.25;97.74
35888;BME280;21990;42.540;23.496;2023-07-31T01:31:32;93170.91;;;20.23;96.84
35888;BME280;21990;42.540;23.496;2023-07-31T01:34:01;93169.56;;;20.24;98.30
35888;BME280;21990;42.540;23.496;2023-07-31T01:36:27;93167.91;;;20.21;97.90
35888;BME280;21990;42.540;23.496;2023-07-31T01:38:58;93162.66;;;20.18;97.40
35888;BME280;21990;42.540;23.496;2023-07-31T01:41:24;93159.34;;;20.12;97.51
35888;BME280;21990;42.540;23.496;2023-07-31T01:43:49;93155.47;;;20.07;96.93
35888;BME280;21990;42.540;23.496;2023-07-31T01:46:15;93160.72;;;20.01;96.72
35888;BME280;21990;42.540;23.496;2023-07-31T01:48:40;93164.19;;;20.00;97.11
35888;BME280;21990;42.540;23.496;2023-07-31T01:51:06;93165.84;;;20.03;97.94
35888;BME280;21990;42.540;23.496;2023-07-31T01:53:31;93164.63;;;19.96;97.60
35888;BME280;21990;42.540;23.496;2023-07-31T01:55:57;93164.22;;;19.90;98.51
35888;BME280;21990;42.540;23.496;2023-07-31T01:58:23;93164.50;;;19.84;98.43
35888;BME280;21990;42.540;23.496;2023-07-31T02:00:48;93158.66;;;19.82;99.19
35888;BME280;21990;42.540;23.496;2023-07-31T02:03:14;93163.78;;;19.84;98.84
35888;BME280;21990;42.540;23.496;2023-07-31T02:05:49;93164.06;;;19.88;99.56
35888;BME280;21990;42.540;23.496;2023-07-31T02:08:15;93164.22;;;19.80;99.62
35888;BME280;21990;42.540;23.496;2023-07-31T02:10:41;93170.53;;;19.79;100.00
35888;BME280;21990;42.540;23.496;2023-07-31T02:13:07;93167.69;;;19.69;100.00
35888;BME280;21990;42.540;23.496;2023-07-31T02:15:32;93161.69;;;19.56;100.00
35888;BME280;21990;42.540;23.496;2023-07-31T02:17:58;93167.09;;;19.52;100.00
35888;BME280;21990;42.540;23.496;2023-07-31T02:20:24;93167.53;;;19.58;100.00
35888;BME280;21990;42.540;23.496;2023-07-31T02:22:50;93167.38;;;19.65;100.00
35888;BME280;21990;42.540;23.496;2023-07-31T02:25:15;93179.59;;;19.56;100.00
35888;BME280;21990;42.540;23.496;2023-07-31T02:27:41;93186.81;;;19.67;100.00
35888;BME280;21990;42.540;23.496;2023-07-31T02:30:07;93182.88;;;19.62;100.00
35888;BME280;21990;42.540;23.496;2023-07-31T02:32:33;93190.72;;;19.62;100.00
35888;BME280;21990;42.540;23.496;2023-07-31T02:34:58;93191.94;;;19.68;100.00
35888;BME280;21990;42.540;23.496;2023-07-31T02:37:25;93188.75;;;19.74;100.00
35888;BME280;21990;42.540;23.496;2023-07-31T02:39:50;93201.25;;;19.78;100.00
35888;BME280;21990;42.540;23.496;2023-07-31T02:42:16;93200.47;;;19.78;99.05
35888;BME280;21990;42.540;23.496;2023-07-31T02:44:41;93197.66;;;19.68;100.00
35888;BME280;21990;42.540;23.496;2023-07-31T02:47:07;93204.56;;;19.75;99.99
35888;BME280;21990;42.540;23.496;2023-07-31T02:49:32;93195.06;;;19.63;100.00
35888;BME280;21990;42.540;23.496;2023-07-31T02:51:58;93192.34;;;19.46;100.00
35888;BME280;21990;42.540;23.496;2023-07-31T02:54:23;93188.31;;;19.49;100.00
35888;BME280;21990;42.540;23.496;2023-07-31T02:56:51;93191.91;;;19.59;100.00
35888;BME280;21990;42.540;23.496;2023-07-31T02:59:17;93185.31;;;19.56;100.00
35888;BME280;21990;42.540;23.496;2023-07-31T03:01:46;93189.34;;;19.63;100.00
35888;BME280;21990;42.540;23.496;2023-07-31T03:04:11;93185.59;;;19.60;100.00
35888;BME280;21990;42.540;23.496;2023-07-31T03:06:37;93184.53;;;19.65;99.38
35888;BME280;21990;42.540;23.496;2023-07-31T03:09:03;93190.13;;;19.63;99.71
35888;BME280;21990;42.540;23.496;2023-07-31T03:11:28;93189.94;;;19.61;100.00
35888;BME280;21990;42.540;23.496;2023-07-31T03:13:54;93190.41;;;19.58;100.00
35888;BME280;21990;42.540;23.496;2023-07-31T03:16:19;93188.59;;;19.62;100.00
35888;BME280;21990;42.540;23.496;2023-07-31T03:18:45;93192.06;;;19.61;100.00
35888;BME280;21990;42.540;23.496;2023-07-31T03:21:12;93189.06;;;19.59;100.00
35888;BME280;21990;42.540;23.496;2023-07-31T03:23:38;93200.78;;;19.63;100.00
35888;BME280;21990;42.540;23.496;2023-07-31T03:26:06;93199.28;;;19.52;100.00
35888;BME280;21990;42.540;23.496;2023-07-31T03:28:32;93202.28;;;19.54;100.00
35888;BME280;21990;42.540;23.496;2023-07-31T03:30:58;93206.97;;;19.59;100.00
35888;BME280;21990;42.540;23.496;2023-07-31T03:33:24;93199.91;;;19.60;100.00
35888;BME280;21990;42.540;23.496;2023-07-31T03:35:50;93197.63;;;19.59;100.00
35888;BME280;21990;42.540;23.496;2023-07-31T03:38:15;93205.16;;;19.64;100.00
35888;BME280;21990;42.540;23.496;2023-07-31T03:40:41;93206.22;;;19.59;100.00
35888;BME280;21990;42.540;23.496;2023-07-31T03:43:06;93206.06;;;19.47;100.00
35888;BME280;21990;42.540;23.496;2023-07-31T03:45:32;93203.03;;;19.55;100.00
35888;BME280;21990;42.540;23.496;2023-07-31T03:47:57;93211.75;;;19.37;100.00
35888;BME280;21990;42.540;23.496;2023-07-31T03:50:23;93204.41;;;19.44;100.00
35888;BME280;21990;42.540;23.496;2023-07-31T03:52:50;93211.94;;;19.49;100.00
35888;BME280;21990;42.540;23.496;2023-07-31T03:55:16;93208.75;;;19.55;100.00
35888;BME280;21990;42.540;23.496;2023-07-31T03:57:41;93211.16;;;19.58;100.00
35888;BME280;21990;42.540;23.496;2023-07-31T04:00:07;93218.22;;;19.57;100.00
35888;BME280;21990;42.540;23.496;2023-07-31T04:02:33;93206.78;;;19.57;100.00
35888;BME280;21990;42.540;23.496;2023-07-31T04:04:58;93208.47;;;19.60;100.00
35888;BME280;21990;42.540;23.496;2023-07-31T04:07:24;93217.78;;;19.51;100.00
35888;BME280;21990;42.540;23.496;2023-07-31T04:09:49;93214.94;;;19.51;100.00
35888;BME280;21990;42.540;23.496;2023-07-31T04:12:15;93218.38;;;19.50;100.00
35888;BME280;21990;42.540;23.496;2023-07-31T04:14:40;93221.53;;;19.44;100.00
35888;BME280;21990;42.540;23.496;2023-07-31T04:17:06;93217.94;;;19.43;100.00
35888;BME280;21990;42.540;23.496;2023-07-31T04:19:31;93218.31;;;19.30;100.00
35888;BME280;21990;42.540;23.496;2023-07-31T04:21:57;93222.88;;;19.33;100.00
35888;BME280;21990;42.540;23.496;2023-07-31T04:24:23;93231.25;;;19.31;100.00
35888;BME280;21990;42.540;23.496;2023-07-31T04:26:52;93219.84;;;19.31;100.00
35888;BME280;21990;42.540;23.496;2023-07-31T04:29:18;93225.84;;;19.35;100.00
35888;BME280;21990;42.540;23.496;2023-07-31T04:31:44;93225.16;;;19.45;100.00
35888;BME280;21990;42.540;23.496;2023-07-31T04:34:09;93220.03;;;19.43;100.00
35888;BME280;21990;42.540;23.496;2023-07-31T04:36:35;93216.53;;;19.35;100.00
35888;BME280;21990;42.540;23.496;2023-07-31T04:39:01;93226.16;;;19.39;100.00
35888;BME280;21990;42.540;23.496;2023-07-31T04:41:26;93220.50;;;19.49;100.00
35888;BME280;21990;42.540;23.496;2023-07-31T04:43:52;93224.09;;;19.50;100.00
35888;BME280;21990;42.540;23.496;2023-07-31T04:46:18;93222.47;;;19.56;100.00
35888;BME280;21990;42.540;23.496;2023-07-31T04:48:43;93218.09;;;19.65;100.00
35888;BME280;21990;42.540;23.496;2023-07-31T04:51:09;93210.72;;;19.71;100.00
35888;BME280;21990;42.540;23.496;2023-07-31T04:53:35;93217.63;;;19.78;100.00
35888;BME280;21990;42.540;23.496;2023-07-31T04:56:04;93214.31;;;19.81;100.00
35888;BME280;21990;42.540;23.496;2023-07-31T04:58:29;93227.28;;;19.82;100.00
35888;BME280;21990;42.540;23.496;2023-07-31T05:00:55;93221.09;;;19.86;100.00
35888;BME280;21990;42.540;23.496;2023-07-31T05:03:20;93220.94;;;19.94;100.00
35888;BME280;21990;42.540;23.496;2023-07-31T05:05:46;93216.28;;;19.98;100.00
35888;BME280;21990;42.540;23.496;2023-07-31T05:08:11;93214.59;;;20.05;100.00
35888;BME280;21990;42.540;23.496;2023-07-31T05:10:37;93212.97;;;20.11;100.00
35888;BME280;21990;42.540;23.496;2023-07-31T05:13:02;93218.81;;;20.23;100.00
35888;BME280;21990;42.540;23.496;2023-07-31T05:15:28;93223.00;;;20.31;99.36
35888;BME280;21990;42.540;23.496;2023-07-31T05:17:54;93220.44;;;20.35;98.28
35888;BME280;21990;42.540;23.496;2023-07-31T05:20:20;93217.28;;;20.41;98.18
35888;BME280;21990;42.540;23.496;2023-07-31T05:22:46;93224.19;;;20.48;99.16
35888;BME280;21990;42.540;23.496;2023-07-31T05:25:12;93229.28;;;20.59;97.86
35888;BME280;21990;42.540;23.496;2023-07-31T05:27:37;93218.28;;;20.96;98.40
35888;BME280;21990;42.540;23.496;2023-07-31T05:30:03;93225.38;;;21.25;95.38
35888;BME280;21990;42.540;23.496;2023-07-31T05:32:29;93225.41;;;21.68;94.63
35888;BME280;21990;42.540;23.496;2023-07-31T05:34:54;93221.38;;;22.04;91.65
35888;BME280;21990;42.540;23.496;2023-07-31T05:37:20;93221.56;;;22.17;89.18
35888;BME280;21990;42.540;23.496;2023-07-31T05:39:45;93219.22;;;22.25;89.92
35888;BME280;21990;42.540;23.496;2023-07-31T05:42:11;93211.66;;;22.53;89.02
35888;BME280;21990;42.540;23.496;2023-07-31T05:44:37;93215.22;;;22.63;86.86
35888;BME280;21990;42.540;23.496;2023-07-31T05:47:02;93212.50;;;22.89;87.63
35888;BME280;21990;42.540;23.496;2023-07-31T05:49:28;93212.66;;;23.26;86.54
35888;BME280;21990;42.540;23.496;2023-07-31T05:51:53;93211.69;;;23.93;82.81
35888;BME280;21990;42.540;23.496;2023-07-31T05:54:19;93210.28;;;23.94;81.73
35888;BME280;21990;42.540;23.496;2023-07-31T05:56:44;93220.53;;;23.97;79.63
35888;BME280;21990;42.540;23.496;2023-07-31T05:59:12;93213.94;;;23.83;79.77
35888;BME280;21990;42.540;23.496;2023-07-31T06:01:38;93218.22;;;23.70;81.28
35888;BME280;21990;42.540;23.496;2023-07-31T06:04:03;93222.59;;;23.83;83.01
35888;BME280;21990;42.540;23.496;2023-07-31T06:06:29;93218.84;;;23.80;79.92
35888;BME280;21990;42.540;23.496;2023-07-31T06:08:55;93228.38;;;23.71;80.61
35888;BME280;21990;42.540;23.496;2023-07-31T06:11:21;93216.25;;;23.73;80.03
35888;BME280;21990;42.540;23.496;2023-07-31T06:13:47;93223.91;;;23.45;78.21
35888;BME280;21990;42.540;23.496;2023-07-31T06:16:14;93223.75;;;23.31;80.70
35888;BME280;21990;42.540;23.496;2023-07-31T06:18:40;93223.75;;;23.19;80.65
35888;BME280;21990;42.540;23.496;2023-07-31T06:21:06;93227.53;;;23.22;81.51
35888;BME280;21990;42.540;23.496;2023-07-31T06:23:32;93221.03;;;23.10;79.37
35888;BME280;21990;42.540;23.496;2023-07-31T06:25:57;93222.66;;;23.13;81.27
35888;BME280;21990;42.540;23.496;2023-07-31T06:28:29;93224.25;;;23.16;80.42
35888;BME280;21990;42.540;23.496;2023-07-31T06:30:56;93227.88;;;23.16;80.42
35888;BME280;21990;42.540;23.496;2023-07-31T06:33:22;93224.91;;;23.38;82.16
35888;BME280;21990;42.540;23.496;2023-07-31T06:35:47;93213.66;;;23.53;80.22
35888;BME280;21990;42.540;23.496;2023-07-31T06:38:13;93218.59;;;23.76;79.21
35888;BME280;21990;42.540;23.496;2023-07-31T06:40:38;93211.69;;;23.93;75.18
35888;BME280;21990;42.540;23.496;2023-07-31T06:43:04;93218.13;;;24.17;75.59
35888;BME280;21990;42.540;23.496;2023-07-31T06:45:36;93210.34;;;24.19;75.35
35888;BME280;21990;42.540;23.496;2023-07-31T06:48:03;93215.59;;;24.23;72.72
35888;BME280;21990;42.540;23.496;2023-07-31T06:50:30;93210.72;;;24.50;75.67
35888;BME280;21990;42.540;23.496;2023-07-31T06:52:56;93205.19;;;24.54;70.37
35888;BME280;21990;42.540;23.496;2023-07-31T06:55:22;93211.28;;;24.61;71.24
35888;BME280;21990;42.540;23.496;2023-07-31T06:57:49;93212.34;;;24.67;70.81
35888;BME280;21990;42.540;23.496;2023-07-31T07:00:16;93218.13;;;24.92;70.77
35888;BME280;21990;42.540;23.496;2023-07-31T07:02:42;93217.16;;;24.88;68.36
35888;BME280;21990;42.540;23.496;2023-07-31T07:05:08;93214.50;;;24.92;68.49
35888;BME280;21990;42.540;23.496;2023-07-31T07:07:34;93216.66;;;25.05;67.08
35888;BME280;21990;42.540;23.496;2023-07-31T07:10:00;93223.31;;;25.21;68.69
35888;BME280;21990;42.540;23.496;2023-07-31T07:12:29;93221.06;;;25.47;65.44
35888;BME280;21990;42.540;23.496;2023-07-31T07:14:55;93218.59;;;25.41;64.12
35888;BME280;21990;42.540;23.496;2023-07-31T07:17:20;93231.34;;;25.50;67.40
35888;BME280;21990;42.540;23.496;2023-07-31T07:19:47;93236.47;;;25.51;63.64
35888;BME280;21990;42.540;23.496;2023-07-31T07:22:13;93230.28;;;25.57;63.76
35888;BME280;21990;42.540;23.496;2023-07-31T07:24:38;93231.25;;;25.48;64.03
35888;BME280;21990;42.540;23.496;2023-07-31T07:27:04;93235.28;;;25.43;65.03
35888;BME280;21990;42.540;23.496;2023-07-31T07:29:30;93236.34;;;25.49;63.85
35888;BME280;21990;42.540;23.496;2023-07-31T07:31:55;93229.34;;;25.66;64.37
35888;BME280;21990;42.540;23.496;2023-07-31T07:34:26;93219.16;;;25.92;63.20
35888;BME280;21990;42.540;23.496;2023-07-31T07:36:52;93226.13;;;25.87;61.57
35888;BME280;21990;42.540;23.496;2023-07-31T07:39:17;93225.91;;;26.40;61.08
35888;BME280;21990;42.540;23.496;2023-07-31T07:41:43;93232.00;;;26.46;61.08
35888;BME280;21990;42.540;23.496;2023-07-31T07:44:08;93227.03;;;26.33;60.41
35888;BME280;21990;42.540;23.496;2023-07-31T07:46:34;93230.75;;;26.35;59.64
35888;BME280;21990;42.540;23.496;2023-07-31T07:49:00;93243.25;;;26.40;60.22
35888;BME280;21990;42.540;23.496;2023-07-31T07:51:25;93235.47;;;26.29;57.55
35888;BME280;21990;42.540;23.496;2023-07-31T07:53:51;93241.47;;;26.92;61.43
35888;BME280;21990;42.540;23.496;2023-07-31T07:56:16;93244.56;;;26.96;61.26
35888;BME280;21990;42.540;23.496;2023-07-31T07:58:42;93241.75;;;26.98;59.61
35888;BME280;21990;42.540;23.496;2023-07-31T08:01:07;93252.53;;;27.11;58.29
35888;BME280;21990;42.540;23.496;2023-07-31T08:03:33;93247.69;;;27.15;55.85
35888;BME280;21990;42.540;23.496;2023-07-31T08:05:59;93263.50;;;26.99;56.74
35888;BME280;21990;42.540;23.496;2023-07-31T08:08:26;93249.44;;;27.07;57.95
35888;BME280;21990;42.540;23.496;2023-07-31T08:10:52;93248.13;;;27.10;55.57
35888;BME280;21990;42.540;23.496;2023-07-31T08:13:17;93255.22;;;27.07;58.19
35888;BME280;21990;42.540;23.496;2023-07-31T08:15:43;93255.22;;;27.07;57.95
35888;BME280;21990;42.540;23.496;2023-07-31T08:18:09;93259.41;;;27.04;56.29
35888;BME280;21990;42.540;23.496;2023-07-31T08:20:36;93249.53;;;27.09;57.96
35888;BME280;21990;42.540;23.496;2023-07-31T08:23:02;93239.09;;;27.33;56.66
35888;BME280;21990;42.540;23.496;2023-07-31T08:25:29;93245.19;;;27.39;55.66
35888;BME280;21990;42.540;23.496;2023-07-31T08:27:54;93244.09;;;27.46;58.64
35888;BME280;21990;42.540;23.496;2023-07-31T08:30:21;93244.16;;;27.48;57.80
35888;BME280;21990;42.540;23.496;2023-07-31T08:32:47;93254.31;;;27.33;55.53
35888;BME280;21990;42.540;23.496;2023-07-31T08:35:12;93247.56;;;27.13;54.08
35888;BME280;21990;42.540;23.496;2023-07-31T08:37:38;93252.69;;;26.99;56.22
35888;BME280;21990;42.540;23.496;2023-07-31T08:40:05;93251.75;;;26.95;57.92
35888;BME280;21990;42.540;23.496;2023-07-31T08:42:31;93251.81;;;26.97;55.79
35888;BME280;21990;42.540;23.496;2023-07-31T08:44:57;93239.56;;;27.12;57.82
35888;BME280;21990;42.540;23.496;2023-07-31T08:47:25;93245.06;;;27.21;56.99
35888;BME280;21990;42.540;23.496;2023-07-31T08:49:52;93246.00;;;27.26;55.37
35888;BME280;21990;42.540;23.496;2023-07-31T08:52:18;93248.06;;;27.39;55.79
35888;BME280;21990;42.540;23.496;2023-07-31T08:54:43;93245.84;;;27.53;57.58
35888;BME280;21990;42.540;23.496;2023-07-31T08:57:10;93245.66;;;27.65;56.20
35888;BME280;21990;42.540;23.496;2023-07-31T08:59:36;93246.97;;;27.77;53.68
35888;BME280;21990;42.540;23.496;2023-07-31T09:02:06;93247.31;;;27.86;54.59
35888;BME280;21990;42.540;23.496;2023-07-31T09:04:33;93252.06;;;27.79;51.49
35888;BME280;21990;42.540;23.496;2023-07-31T09:07:03;93259.38;;;27.80;51.67
35888;BME280;21990;42.540;23.496;2023-07-31T09:09:33;93238.34;;;27.79;55.27
35888;BME280;21990;42.540;23.496;2023-07-31T09:11:58;93238.53;;;27.83;51.48
35888;BME280;21990;42.540;23.496;2023-07-31T09:14:25;93248.91;;;27.89;52.80
35888;BME280;21990;42.540;23.496;2023-07-31T09:16:53;93242.16;;;28.00;51.35
35888;BME280;21990;42.540;23.496;2023-07-31T09:19:29;93232.94;;;28.21;52.82
35888;BME280;21990;42.540;23.496;2023-07-31T09:21:55;93240.75;;;28.34;53.40
35888;BME280;21990;42.540;23.496;2023-07-31T09:24:31;93233.91;;;28.43;51.59
35888;BME280;21990;42.540;23.496;2023-07-31T09:26:58;93238.31;;;28.44;51.88
35888;BME280;21990;42.540;23.496;2023-07-31T09:29:24;93224.53;;;28.45;52.36
35888;BME280;21990;42.540;23.496;2023-07-31T09:31:52;93225.88;;;28.42;52.03
35888;BME280;21990;42.540;23.496;2023-07-31T09:34:18;93221.66;;;28.45;51.52
35888;BME280;21990;42.540;23.496;2023-07-31T09:36:46;93218.44;;;28.54;51.88
35888;BME280;21990;42.540;23.496;2023-07-31T09:39:13;93215.13;;;28.62;53.10
35888;BME280;21990;42.540;23.496;2023-07-31T09:41:41;93215.03;;;28.60;50.79
35888;BME280;21990;42.540;23.496;2023-07-31T09:44:07;93210.72;;;28.43;48.20
35888;BME280;21990;42.540;23.496;2023-07-31T09:46:35;93212.19;;;28.26;49.76
35888;BME280;21990;42.540;23.496;2023-07-31T09:49:12;93212.53;;;28.17;49.81
35888;BME280;21990;42.540;23.496;2023-07-31T09:51:40;93213.91;;;28.16;50.71
35888;BME280;21990;42.540;23.496;2023-07-31T09:54:13;93217.25;;;28.26;51.90
35888;BME280;21990;42.540;23.496;2023-07-31T09:56:44;93207.16;;;28.27;51.54
35888;BME280;21990;42.540;23.496;2023-07-31T09:59:18;93210.13;;;28.29;48.77
35888;BME280;21990;42.540;23.496;2023-07-31T10:01:46;93200.66;;;28.11;46.53
35888;BME280;21990;42.540;23.496;2023-07-31T10:04:13;93209.94;;;27.92;48.61
35888;BME280;21990;42.540;23.496;2023-07-31T10:06:40;93220.63;;;27.71;48.73
35888;BME280;21990;42.540;23.496;2023-07-31T10:09:11;93217.34;;;27.63;48.34
35888;BME280;21990;42.540;23.496;2023-07-31T10:11:48;93213.25;;;27.68;51.93
35888;BME280;21990;42.540;23.496;2023-07-31T10:14:20;93216.47;;;27.92;52.49
35888;BME280;21990;42.540;23.496;2023-07-31T10:16:46;93212.25;;;28.11;51.90
35888;BME280;21990;42.540;23.496;2023-07-31T10:19:12;93214.25;;;28.24;50.45
35888;BME280;21990;42.540;23.496;2023-07-31T10:21:38;93216.25;;;28.19;47.83
35888;BME280;21990;42.540;23.496;2023-07-31T10:24:04;93214.69;;;28.01;48.36
35888;BME280;21990;42.540;23.496;2023-07-31T10:26:31;93230.38;;;27.96;48.77
35888;BME280;21990;42.540;23.496;2023-07-31T10:28:58;93218.84;;;27.80;50.73
35888;BME280;21990;42.540;23.496;2023-07-31T10:31:24;93210.59;;;27.74;51.71
35888;BME280;21990;42.540;23.496;2023-07-31T10:33:51;93207.56;;;28.04;53.21
35888;BME280;21990;42.540;23.496;2023-07-31T10:36:18;93203.50;;;28.26;52.39
35888;BME280;21990;42.540;23.496;2023-07-31T10:38:45;93204.66;;;28.37;51.94
35888;BME280;21990;42.540;23.496;2023-07-31T10:41:11;93205.00;;;28.45;51.01
35888;BME280;21990;42.540;23.496;2023-07-31T10:43:37;93201.69;;;28.35;51.01
35888;BME280;21990;42.540;23.496;2023-07-31T10:46:07;93203.44;;;28.24;49.85
35888;BME280;21990;42.540;23.496;2023-07-31T10:48:35;93197.34;;;28.18;52.79
35888;BME280;21990;42.540;23.496;2023-07-31T10:51:09;93196.63;;;28.02;49.58
35888;BME280;21990;42.540;23.496;2023-07-31T10:53:36;93192.56;;;27.92;49.20
35888;BME280;21990;42.540;23.496;2023-07-31T10:56:10;93191.81;;;27.91;51.25
35888;BME280;21990;42.540;23.496;2023-07-31T10:58:44;93188.84;;;27.89;52.88
35888;BME280;21990;42.540;23.496;2023-07-31T11:01:11;93201.53;;;27.82;51.39
35888;BME280;21990;42.540;23.496;2023-07-31T11:06:08;93194.38;;;27.67;52.61
35888;BME280;21990;42.540;23.496;2023-07-31T11:08:36;93187.41;;;27.57;50.62
35888;BME280;21990;42.540;23.496;2023-07-31T11:11:08;93181.03;;;27.60;53.56
35888;BME280;21990;42.540;23.496;2023-07-31T11:16:05;93179.75;;;27.97;49.42
35888;BME280;21990;42.540;23.496;2023-07-31T11:18:31;93173.03;;;28.25;50.18
35888;BME280;21990;42.540;23.496;2023-07-31T11:20:56;93168.06;;;28.46;51.79
35888;BME280;21990;42.540;23.496;2023-07-31T11:23:23;93165.09;;;28.61;50.68
35888;BME280;21990;42.540;23.496;2023-07-31T11:25:49;93170.56;;;28.53;46.45
35888;BME280;21990;42.540;23.496;2023-07-31T11:28:16;93174.84;;;28.52;47.21
35888;BME280;21990;42.540;23.496;2023-07-31T11:30:43;93174.22;;;28.36;49.00
35888;BME280;21990;42.540;23.496;2023-07-31T11:33:11;93171.97;;;28.52;52.19
35888;BME280;21990;42.540;23.496;2023-07-31T11:35:48;93171.31;;;28.54;48.89
35888;BME280;21990;42.540;23.496;2023-07-31T11:38:27;93165.19;;;28.46;48.47
35888;BME280;21990;42.540;23.496;2023-07-31T11:40:55;93164.66;;;28.34;48.12
35888;BME280;21990;42.540;23.496;2023-07-31T11:43:21;93172.69;;;28.17;48.95
35888;BME280;21990;42.540;23.496;2023-07-31T11:45:48;93170.47;;;28.16;49.15
35888;BME280;21990;42.540;23.496;2023-07-31T11:50:46;93162.00;;;28.22;47.46
35888;BME280;21990;42.540;23.496;2023-07-31T11:53:13;93161.44;;;28.25;48.19
35888;BME280;21990;42.540;23.496;2023-07-31T11:55:39;93156.50;;;28.28;48.16
35888;BME280;21990;42.540;23.496;2023-07-31T11:58:05;93153.16;;;28.18;47.53
35888;BME280;21990;42.540;23.496;2023-07-31T12:00:30;93155.13;;;28.13;45.55
35888;BME280;21990;42.540;23.496;2023-07-31T12:02:56;93151.53;;;27.97;48.05
35888;BME280;21990;42.540;23.496;2023-07-31T12:05:22;93148.25;;;28.05;47.86
35888;BME280;21990;42.540;23.496;2023-07-31T12:07:53;93147.88;;;28.30;52.58
35888;BME280;21990;42.540;23.496;2023-07-31T12:10:29;93152.50;;;28.37;45.67
35888;BME280;21990;42.540;23.496;2023-07-31T12:13:01;93142.25;;;28.52;47.15
35888;BME280;21990;42.540;23.496;2023-07-31T12:15:36;93143.66;;;28.68;47.11
35888;BME280;21990;42.540;23.496;2023-07-31T12:18:11;93142.47;;;28.75;44.31
35888;BME280;21990;42.540;23.496;2023-07-31T12:20:44;93143.41;;;28.62;44.87
35888;BME280;21990;42.540;23.496;2023-07-31T12:23:17;93125.84;;;28.58;44.45
35888;BME280;21990;42.540;23.496;2023-07-31T12:25:44;93127.25;;;28.40;45.47
35888;BME280;21990;42.540;23.496;2023-07-31T12:28:10;93125.44;;;28.13;45.41
35888;BME280;21990;42.540;23.496;2023-07-31T12:30:40;93120.88;;;28.25;48.19
35888;BME280;21990;42.540;23.496;2023-07-31T12:33:15;93118.81;;;28.46;48.39
35888;BME280;21990;42.540;23.496;2023-07-31T12:35:45;93115.81;;;28.61;47.87
35888;BME280;21990;42.540;23.496;2023-07-31T12:38:15;93117.38;;;28.64;45.57
35888;BME280;21990;42.540;23.496;2023-07-31T12:40:41;93120.63;;;28.55;45.58
35888;BME280;21990;42.540;23.496;2023-07-31T12:43:08;93100.94;;;28.51;44.15
35888;BME280;21990;42.540;23.496;2023-07-31T12:45:34;93098.66;;;28.67;50.93
35888;BME280;21990;42.540;23.496;2023-07-31T12:48:01;93106.13;;;28.72;47.44
35888;BME280;21990;42.540;23.496;2023-07-31T12:50:27;93087.91;;;28.70;45.48
35888;BME280;21990;42.540;23.496;2023-07-31T12:52:56;93095.34;;;28.57;44.60
35888;BME280;21990;42.540;23.496;2023-07-31T12:55:23;93097.50;;;28.57;45.68
35888;BME280;21990;42.540;23.496;2023-07-31T12:57:49;93085.31;;;28.60;45.91
35888;BME280;21990;42.540;23.496;2023-07-31T13:00:15;93092.88;;;28.50;44.25
35888;BME280;21990;42.540;23.496;2023-07-31T13:02:41;93092.50;;;28.40;45.28